Terminal Aerodrome Forecast
Issued by NWS

Home | Current Version | Previous Version | Text Only | Print | Product List | Glossary On
Versions: 1 2 3 4 5 6 7 8 9 10 11 12 13 14 15 16 17 18 19 20 21
138
FTUS43 KGRR 260530
TAFLAN
TAF
KLAN 260530Z 2606/2706 10010KT 3SM -RA BR OVC009
     FM261100 10010KT 2SM -RA BR VCTS OVC009CB
     FM261400 13010KT 2SM -RA BR OVC005
     FM262300 19008KT 1 1/2SM -SHRA BR OVC009=

USA.gov is the U.S. government's official web portal to all federal, state and local government web resources and services.